Time;durP1;ratioP1;P1;durP2;ratioP2;P2;SDS_P1;SDS_P2;PMS_P1;PMS_P2;Temp;Humidity;BMP_temperature;BMP_pressure;BME280_temperature;BME280_humidity;BME280_pressure;Samples;Min_cycle;Max_cycle;Signal;HPM_P1;HPM_P2
2021/06/28 06:49:11;;;;;;;1330.18;999.90;;;21.60;99.90;;;;;;5132455;27;20599;-67
2021/06/28 06:51:37;;;;;;;1363.28;999.90;;;21.60;99.90;;;;;;5132152;27;20559;-67
2021/06/28 06:54:03;;;;;;;1348.85;999.90;;;21.70;99.90;;;;;;5132023;28;20558;-67
2021/06/28 06:56:28;;;;;;;1362.18;999.90;;;21.70;99.90;;;;;;5132154;28;20188;-67
2021/06/28 06:58:54;;;;;;;1399.80;999.90;;;21.80;99.90;;;;;;5130747;28;20177;-67
2021/06/28 07:01:20;;;;;;;1444.43;999.90;;;21.80;99.90;;;;;;5130773;28;20165;-67
2021/06/28 07:03:46;;;;;;;1476.95;999.90;;;21.80;99.90;;;;;;5132124;27;20170;-67
2021/06/28 07:06:12;;;;;;;1449.20;999.90;;;21.80;99.90;;;;;;5131878;28;20185;-67
2021/06/28 07:08:38;;;;;;;1543.70;999.90;;;21.90;99.90;;;;;;5131624;28;20194;-67
2021/06/28 07:11:06;;;;;;;1435.60;999.90;;;22.00;99.90;;;;;;5131675;28;20185;-67
2021/06/28 07:13:33;;;;;;;1394.68;999.90;;;21.90;99.90;;;;;;5131681;28;20165;-67
2021/06/28 07:15:58;;;;;;;1416.95;999.90;;;21.90;99.90;;;;;;5131366;28;20166;-67
2021/06/28 07:18:24;;;;;;;1410.15;999.90;;;21.80;99.90;;;;;;5131319;28;20181;-67
2021/06/28 07:20:50;;;;;;;1342.75;999.90;;;21.90;99.90;;;;;;5130300;28;20182;-67
2021/06/28 07:23:16;;;;;;;1329.35;999.90;;;21.80;99.90;;;;;;5131604;28;20618;-67
2021/06/28 07:25:42;;;;;;;1334.25;999.90;;;21.80;99.90;;;;;;5131365;28;20170;-67
2021/06/28 07:28:09;;;;;;;1333.80;999.90;;;21.80;99.90;;;;;;5131353;28;20517;-67
2021/06/28 07:30:35;;;;;;;1317.97;999.90;;;21.90;99.90;;;;;;5131135;28;20182;-67
2021/06/28 07:33:00;;;;;;;1345.05;999.90;;;21.90;99.90;;;;;;5131183;27;20170;-67
2021/06/28 07:35:26;;;;;;;1365.15;999.90;;;21.90;99.90;;;;;;5130099;27;20632;-67
2021/06/28 07:37:52;;;;;;;1401.35;999.90;;;22.00;99.90;;;;;;5131277;27;20227;-67
2021/06/28 07:40:19;;;;;;;1431.30;999.90;;;22.20;99.90;;;;;;5131515;27;20170;-67
2021/06/28 07:42:46;;;;;;;1478.90;999.90;;;22.30;99.90;;;;;;5131256;27;20166;-67
2021/06/28 07:45:13;;;;;;;1603.88;999.90;;;22.50;99.90;;;;;;5130983;27;20253;-67
2021/06/28 07:47:39;;;;;;;1517.32;999.90;;;22.70;99.90;;;;;;5130784;27;20217;-67
2021/06/28 07:50:06;;;;;;;1513.47;999.90;;;22.80;99.90;;;;;;5129819;27;20208;-67
2021/06/28 07:52:32;;;;;;;1584.72;999.90;;;23.00;99.90;;;;;;5130800;27;20162;-68
2021/06/28 07:54:59;;;;;;;1608.15;999.90;;;23.10;99.90;;;;;;5131018;27;20169;-67
2021/06/28 07:57:25;;;;;;;1684.85;999.90;;;23.20;99.90;;;;;;5130877;27;20170;-65
2021/06/28 07:59:50;;;;;;;1609.90;999.90;;;23.30;99.90;;;;;;5121330;27;20166;-65
2021/06/28 08:02:16;;;;;;;1856.43;999.90;;;23.30;99.90;;;;;;5116938;28;20171;-65
2021/06/28 08:04:42;;;;;;;1728.90;999.90;;;23.40;99.90;;;;;;5116967;28;20200;-65
2021/06/28 08:07:07;;;;;;;1642.63;999.90;;;23.50;99.90;;;;;;5116832;28;20194;-65
2021/06/28 08:09:33;;;;;;;1681.80;999.90;;;23.60;99.90;;;;;;5117102;28;20220;-65
2021/06/28 08:11:59;;;;;;;1653.28;999.90;;;23.70;99.90;;;;;;5115343;28;20257;-65
2021/06/28 08:14:25;;;;;;;1511.60;999.90;;;23.80;99.90;;;;;;5116688;28;20166;-65
2021/06/28 08:16:51;;;;;;;1444.90;999.90;;;23.80;99.90;;;;;;5115524;28;20166;-65
2021/06/28 08:19:16;;;;;;;1355.47;999.90;;;23.80;99.90;;;;;;5116822;28;20165;-65
2021/06/28 08:21:42;;;;;;;1377.85;999.90;;;23.80;99.90;;;;;;5116615;28;20166;-65
2021/06/28 08:24:09;;;;;;;1332.65;999.90;;;23.70;99.90;;;;;;5116742;28;20186;-65
2021/06/28 08:26:37;;;;;;;1292.95;999.90;;;23.60;99.90;;;;;;5116581;28;20201;-65
2021/06/28 08:29:04;;;;;;;1279.75;999.90;;;23.50;99.90;;;;;;5116577;27;20196;-65
2021/06/28 08:31:39;;;;;;;1272.47;999.90;;;23.40;99.90;;;;;;5116355;28;20166;-65
2021/06/28 08:34:05;;;;;;;1243.38;999.90;;;23.30;99.90;;;;;;5116494;28;20186;-65
2021/06/28 08:36:31;;;;;;;1243.90;999.90;;;23.30;99.90;;;;;;5116266;28;20205;-65
2021/06/28 08:38:57;;;;;;;1275.88;999.90;;;23.20;99.90;;;;;;5116306;27;20166;-65
2021/06/28 08:41:25;;;;;;;1208.53;999.90;;;23.20;99.90;;;;;;5116369;28;20162;-65
2021/06/28 08:43:51;;;;;;;1224.90;999.90;;;23.20;99.90;;;;;;5116373;28;20171;-65
2021/06/28 08:46:18;;;;;;;1222.47;999.90;;;23.30;99.90;;;;;;5116362;28;20162;-65
2021/06/28 08:48:44;;;;;;;1271.88;999.90;;;23.30;99.90;;;;;;5115807;28;20305;-65
2021/06/28 08:51:10;;;;;;;1244.38;999.90;;;23.40;99.90;;;;;;5116214;28;20154;-65
2021/06/28 08:53:36;;;;;;;1243.72;999.90;;;23.50;99.90;;;;;;5116165;28;20167;-65
2021/06/28 08:56:07;;;;;;;1268.85;999.90;;;23.60;99.90;;;;;;5116133;28;20631;-65
2021/06/28 08:58:38;;;;;;;1288.22;999.90;;;23.80;99.90;;;;;;5115996;27;20215;-65
2021/06/28 09:01:05;;;;;;;1312.55;999.90;;;24.00;99.90;;;;;;5115959;28;20174;-65
2021/06/28 09:03:31;;;;;;;1305.90;999.90;;;24.20;99.90;;;;;;5115677;28;20173;-65
2021/06/28 09:06:01;;;;;;;1288.05;999.90;;;24.30;99.90;;;;;;5115677;28;20249;-65
2021/06/28 09:08:27;;;;;;;1233.25;999.90;;;24.50;99.90;;;;;;5115636;27;20277;-65
2021/06/28 09:10:52;;;;;;;1263.82;999.90;;;24.50;99.90;;;;;;5114661;28;20198;-65
2021/06/28 09:13:34;;;;;;;1235.20;999.90;;;24.60;99.90;;;;;;5114528;28;20528;-65
2021/06/28 09:16:13;;;;;;;1221.07;999.90;;;24.60;99.90;;;;;;5115817;28;20189;-65
2021/06/28 09:18:52;;;;;;;1171.80;999.90;;;24.60;99.90;;;;;;5115615;28;20498;-65
2021/06/28 09:21:24;;;;;;;1194.05;999.90;;;24.50;99.90;;;;;;5115612;28;20198;-65
2021/06/28 09:23:50;;;;;;;1128.25;999.90;;;24.60;99.90;;;;;;5114391;28;20174;-65
2021/06/28 09:26:17;;;;;;;1177.07;999.90;;;24.70;99.90;;;;;;5115404;28;20519;-65
2021/06/28 09:28:47;;;;;;;1144.60;999.90;;;24.80;99.90;;;;;;5115575;28;20194;-65
2021/06/28 09:31:38;;;;;;;1139.47;999.90;;;24.80;99.90;;;;;;5115237;28;20238;-65
2021/06/28 09:34:18;;;;;;;1132.55;999.90;;;24.90;99.90;;;;;;5115008;28;20174;-65
2021/06/28 09:36:57;;;;;;;1121.88;999.90;;;25.00;99.90;;;;;;5115305;27;20181;-65
2021/06/28 09:39:25;;;;;;;1101.93;998.42;;;25.00;99.90;;;;;;5115179;28;20561;-65
2021/06/28 09:41:58;;;;;;;1043.18;963.03;;;25.10;99.90;;;;;;5115207;28;20245;-65
2021/06/28 09:44:25;;;;;;;1097.72;998.90;;;25.20;99.90;;;;;;5115013;28;20162;-65
2021/06/28 09:47:08;;;;;;;1084.00;995.13;;;25.20;99.90;;;;;;5115020;28;20162;-65
2021/06/28 09:49:34;;;;;;;1163.22;999.90;;;25.30;99.90;;;;;;5115110;28;20158;-65
2021/06/28 09:52:00;;;;;;;1116.57;999.90;;;25.50;99.90;;;;;;5115087;28;20170;-65
2021/06/28 09:54:25;;;;;;;1052.57;968.42;;;25.60;99.90;;;;;;5114985;28;20158;-65
2021/06/28 09:56:53;;;;;;;1069.70;980.85;;;25.80;99.90;;;;;;5114711;28;20170;-65
2021/06/28 09:59:24;;;;;;;1120.20;999.90;;;25.90;99.90;;;;;;5114826;28;20201;-65
2021/06/28 10:02:07;;;;;;;972.25;899.28;;;26.10;99.90;;;;;;5113615;28;20268;-66
2021/06/28 10:04:39;;;;;;;1070.93;984.03;;;26.20;99.90;;;;;;5114758;28;20165;-65
2021/06/28 10:07:29;;;;;;;991.38;916.33;;;26.40;99.90;;;;;;5114428;28;20161;-65
2021/06/28 10:10:14;;;;;;;939.92;870.72;;;26.50;99.90;;;;;;5114616;28;20158;-66
2021/06/28 10:12:43;;;;;;;978.28;904.22;;;26.60;99.90;;;;;;5114666;28;20158;-66
2021/06/28 10:15:11;;;;;;;974.05;900.10;;;26.70;99.90;;;;;;5114461;28;20190;-66
2021/06/28 10:17:38;;;;;;;1038.22;955.33;;;26.80;99.90;;;;;;5113210;28;20190;-66
2021/06/28 10:20:07;;;;;;;1123.43;999.90;;;26.90;99.90;;;;;;5114618;28;20214;-66
2021/06/28 10:22:34;;;;;;;918.00;850.58;;;27.20;99.90;;;;;;5114087;27;20166;-66
2021/06/28 10:25:00;;;;;;;910.95;843.00;;;27.20;99.90;;;;;;5114331;28;20494;-66
2021/06/28 10:27:27;;;;;;;913.20;846.05;;;27.20;99.90;;;;;;5114578;28;20219;-66
2021/06/28 10:29:53;;;;;;;944.70;873.58;;;27.20;99.90;;;;;;5114309;28;20183;-66
2021/06/28 10:32:20;;;;;;;814.42;758.78;;;27.20;99.90;;;;;;5113966;28;20276;-66
2021/06/28 10:34:51;;;;;;;855.80;795.40;;;27.20;99.90;;;;;;5114257;28;20181;-66
2021/06/28 10:37:30;;;;;;;924.70;855.10;;;27.10;99.90;;;;;;5114245;28;20186;-66
2021/06/28 10:39:58;;;;;;;856.17;796.78;;;27.00;99.90;;;;;;5113938;27;20565;-66
2021/06/28 10:42:32;;;;;;;995.85;918.05;;;26.90;99.90;;;;;;5114229;28;20631;-66
2021/06/28 10:44:58;;;;;;;947.58;876.13;;;27.00;99.90;;;;;;5113982;27;20177;-67
2021/06/28 10:47:23;;;;;;;1004.50;924.28;;;27.00;99.90;;;;;;5113894;28;20607;-67
2021/06/28 10:49:52;;;;;;;924.33;855.03;;;27.00;99.90;;;;;;5114157;28;20215;-67
2021/06/28 10:52:37;;;;;;;867.90;806.85;;;26.90;99.90;;;;;;5114048;28;20162;-66
2021/06/28 10:55:14;;;;;;;927.50;859.60;;;26.80;99.90;;;;;;5114081;28;20524;-67
2021/06/28 10:57:42;;;;;;;818.97;763.72;;;26.80;99.90;;;;;;5113985;28;20254;-67
2021/06/28 11:00:08;;;;;;;959.10;886.58;;;26.90;99.90;;;;;;5114075;28;20158;-67
2021/06/28 11:02:39;;;;;;;932.05;863.95;;;27.00;99.90;;;;;;5114027;28;20171;-67
2021/06/28 11:05:07;;;;;;;988.85;912.28;;;27.20;99.90;;;;;;5113907;28;20245;-67
2021/06/28 11:07:45;;;;;;;819.13;763.03;;;27.40;99.90;;;;;;5113860;28;20257;-67
2021/06/28 11:10:37;;;;;;;816.72;760.83;;;27.60;99.90;;;;;;5114005;28;20178;-67
2021/06/28 11:13:28;;;;;;;717.97;671.83;;;27.80;99.90;;;;;;5113599;28;20167;-67
2021/06/28 11:15:53;;;;;;;772.30;721.42;;;27.80;99.90;;;;;;5113548;28;20552;-67
2021/06/28 11:18:30;;;;;;;372.17;353.42;;;27.80;99.90;;;;;;5113571;28;20314;-66
2021/06/28 11:20:56;;;;;;;496.30;468.33;;;27.60;99.90;;;;;;5113558;28;20162;-67
2021/06/28 11:23:21;;;;;;;534.63;503.23;;;27.40;99.90;;;;;;5113618;28;20163;-67
2021/06/28 11:25:50;;;;;;;612.42;575.22;;;27.30;99.90;;;;;;5113523;28;20588;-67
2021/06/28 11:28:17;;;;;;;471.95;446.00;;;27.20;99.90;;;;;;5113927;28;20174;-67
2021/06/28 11:31:00;;;;;;;492.35;464.70;;;27.20;99.90;;;;;;5113671;28;20528;-67
2021/06/28 11:33:32;;;;;;;387.13;367.05;;;27.10;99.90;;;;;;5113850;28;20173;-67
2021/06/28 11:35:58;;;;;;;381.98;362.65;;;26.90;99.90;;;;;;5117274;28;20167;-67
2021/06/28 11:38:42;;;;;;;396.35;376.15;;;26.70;99.90;;;;;;5117731;28;20246;-67
2021/06/28 11:41:08;;;;;;;666.58;625.83;;;26.50;99.90;;;;;;5117354;28;20661;-67
2021/06/28 11:43:47;;;;;;;457.75;432.80;;;26.30;99.90;;;;;;5117551;28;20172;-66
2021/06/28 11:46:26;;;;;;;584.40;550.10;;;26.00;99.90;;;;;;5117395;28;20166;-66
2021/06/28 11:49:07;;;;;;;609.50;572.70;;;25.70;99.90;;;;;;5117277;28;20210;-66
2021/06/28 11:51:38;;;;;;;1008.38;929.42;;;25.30;99.90;;;;;;5117082;28;20691;-66
2021/06/28 11:54:09;;;;;;;1260.20;999.90;;;24.80;99.90;;;;;;5117120;28;20170;-66
2021/06/28 11:56:37;;;;;;;1150.28;999.90;;;24.20;99.90;;;;;;5115891;28;20529;-66
2021/06/28 11:59:12;;;;;;;1306.93;999.90;;;23.70;99.90;;;;;;5116958;28;20603;-66
2021/06/28 12:01:47;;;;;;;1391.10;999.90;;;23.50;99.90;;;;;;5116935;28;20207;-66
2021/06/28 12:04:19;;;;;;;1458.88;999.90;;;23.30;99.90;;;;;;5115733;28;20261;-66
2021/06/28 12:06:46;;;;;;;1315.82;999.90;;;23.30;99.90;;;;;;5116866;27;20170;-66
2021/06/28 12:09:20;;;;;;;1694.95;999.90;;;23.30;99.90;;;;;;5116814;28;20173;-66
2021/06/28 12:12:07;;;;;;;1778.75;999.90;;;23.50;99.90;;;;;;5116880;28;20226;-66
2021/06/28 12:14:49;;;;;;;1835.00;999.90;;;23.60;99.90;;;;;;5116822;28;20174;-66
2021/06/28 12:17:27;;;;;;;1936.60;999.90;;;23.70;99.90;;;;;;5116641;28;20203;-66
2021/06/28 12:19:56;;;;;;;1999.90;999.90;;;24.00;99.90;;;;;;5116643;28;20170;-66
2021/06/28 12:22:26;;;;;;;1864.13;999.90;;;24.20;99.90;;;;;;5116480;27;20513;-66
2021/06/28 12:24:56;;;;;;;1560.22;999.90;;;24.40;99.90;;;;;;5116359;28;20166;-66
2021/06/28 12:27:26;;;;;;;1585.18;999.90;;;24.50;99.90;;;;;;5116430;28;20173;-66
2021/06/28 12:29:53;;;;;;;1406.65;999.90;;;24.60;99.90;;;;;;5115345;28;20174;-66
2021/06/28 12:32:23;;;;;;;1339.47;999.90;;;24.80;99.90;;;;;;5116594;28;20182;-66
2021/06/28 12:34:48;;;;;;;1646.63;999.90;;;24.90;99.90;;;;;;5116273;27;20171;-66
2021/06/28 12:37:30;;;;;;;1431.05;999.90;;;25.10;99.90;;;;;;5116239;28;20174;-66
2021/06/28 12:40:32;;;;;;;1305.82;999.90;;;25.30;99.90;;;;;;5116700;28;20167;-66
2021/06/28 12:43:07;;;;;;;1296.35;999.90;;;25.40;99.90;;;;;;5116353;28;20245;-66
2021/06/28 12:45:35;;;;;;;1504.28;999.90;;;25.50;99.90;;;;;;5116006;28;20185;-66
2021/06/28 12:48:04;;;;;;;1606.10;999.90;;;25.60;99.90;;;;;;5114949;28;20230;-66
2021/06/28 12:50:33;;;;;;;1463.70;999.90;;;25.80;99.90;;;;;;5116277;28;20175;-66
2021/06/28 12:52:59;;;;;;;1295.72;999.90;;;26.00;99.90;;;;;;5116313;28;20169;-66
2021/06/28 12:55:29;;;;;;;1304.93;999.90;;;26.20;99.90;;;;;;5115999;28;20178;-66
2021/06/28 12:58:13;;;;;;;1282.70;999.90;;;26.40;99.90;;;;;;5115793;28;20190;-66
2021/06/28 13:00:59;;;;;;;1268.40;999.90;;;26.50;99.90;;;;;;5116042;28;20249;-66
2021/06/28 13:03:29;;;;;;;1274.95;999.90;;;26.40;99.90;;;;;;5115823;28;20261;-66
2021/06/28 13:06:00;;;;;;;1162.70;999.90;;;26.40;99.90;;;;;;5116184;27;20169;-67
2021/06/28 13:08:26;;;;;;;1223.85;999.90;;;26.20;99.90;;;;;;5115778;27;20682;-67
2021/06/28 13:11:04;;;;;;;1262.25;999.90;;;26.10;99.90;;;;;;5115862;28;20199;-67
2021/06/28 13:13:53;;;;;;;1268.25;999.90;;;25.90;99.90;;;;;;5114524;28;20180;-67
2021/06/28 13:16:28;;;;;;;1354.90;999.90;;;25.80;99.90;;;;;;5115645;28;20170;-66
2021/06/28 13:19:05;;;;;;;1244.63;999.90;;;25.60;99.90;;;;;;5115511;28;20285;-66
2021/06/28 13:21:43;;;;;;;1255.07;999.90;;;25.40;99.90;;;;;;5115649;28;20185;-66
2021/06/28 13:24:21;;;;;;;1274.10;999.90;;;25.30;99.90;;;;;;5115439;27;20175;-66
2021/06/28 13:26:48;;;;;;;1241.70;999.90;;;25.10;99.90;;;;;;5114408;28;20170;-66
2021/06/28 13:29:18;;;;;;;1236.15;999.90;;;25.00;99.90;;;;;;5115412;28;20380;-66
2021/06/28 13:32:00;;;;;;;1231.40;999.90;;;24.90;99.90;;;;;;5114087;28;20194;-66
2021/06/28 13:34:42;;;;;;;1303.85;999.90;;;24.80;99.90;;;;;;5114045;28;20171;-66
2021/06/28 13:37:32;;;;;;;1312.40;999.90;;;24.60;99.90;;;;;;5115267;28;20171;-67
2021/06/28 13:39:59;;;;;;;1257.15;999.90;;;24.50;99.90;;;;;;5114710;27;20183;-66
2021/06/28 13:42:27;;;;;;;1355.38;999.90;;;24.50;99.90;;;;;;5114851;28;20170;-66
2021/06/28 13:44:57;;;;;;;1444.97;999.90;;;24.40;99.90;;;;;;5115125;28;20643;-66
2021/06/28 13:47:22;;;;;;;1424.68;999.90;;;24.30;99.90;;;;;;5114791;28;20552;-67
2021/06/28 13:49:48;;;;;;;1381.97;999.90;;;24.40;99.90;;;;;;5115030;28;20174;-66
2021/06/28 13:52:13;;;;;;;1452.45;999.90;;;24.40;99.90;;;;;;5114944;28;20167;-67
2021/06/28 13:54:39;;;;;;;1372.40;999.90;;;24.50;99.90;;;;;;5114965;28;20191;-67
2021/06/28 13:57:05;;;;;;;1366.78;999.90;;;24.60;99.90;;;;;;5114322;28;20177;-66
2021/06/28 13:59:31;;;;;;;1356.07;999.90;;;24.80;99.90;;;;;;5114856;28;20162;-67
2021/06/28 14:01:57;;;;;;;1467.68;999.90;;;25.00;99.90;;;;;;5114851;28;20155;-67
2021/06/28 14:04:22;;;;;;;1304.25;999.90;;;25.20;99.90;;;;;;5114694;28;20163;-66
2021/06/28 14:06:48;;;;;;;1301.18;999.90;;;25.40;99.90;;;;;;5114698;28;20227;-67
2021/06/28 14:09:14;;;;;;;1229.60;999.90;;;25.60;99.90;;;;;;5114605;28;20201;-66
2021/06/28 14:11:39;;;;;;;1222.55;999.90;;;25.80;99.90;;;;;;5114847;28;20198;-67
2021/06/28 14:14:05;;;;;;;1253.20;999.90;;;25.90;99.90;;;;;;5113370;28;20616;-66
2021/06/28 14:16:31;;;;;;;1170.47;999.90;;;26.20;99.90;;;;;;5113329;28;20175;-67
2021/06/28 14:18:56;;;;;;;930.58;863.50;;;26.60;99.90;;;;;;5114538;28;20198;-67
2021/06/28 14:21:22;;;;;;;828.17;772.92;;;26.90;99.90;;;;;;5114362;28;20277;-67
2021/06/28 14:23:48;;;;;;;876.13;815.03;;;27.20;99.90;;;;;;5114446;28;20162;-67
2021/06/28 14:26:14;;;;;;;778.78;728.83;;;27.40;99.90;;;;;;5114405;28;20719;-67
2021/06/28 14:28:39;;;;;;;654.42;613.78;;;27.60;99.90;;;;;;5114468;28;20170;-67
2021/06/28 14:31:05;;;;;;;627.15;588.83;;;27.80;99.90;;;;;;5114235;28;20270;-67
2021/06/28 14:33:30;;;;;;;487.08;459.48;;;28.00;99.90;;;;;;5114374;28;20512;-67
2021/06/28 14:35:56;;;;;;;353.67;336.17;;;28.10;99.90;;;;;;5114248;28;20175;-67
2021/06/28 14:38:22;;;;;;;224.80;214.32;;;28.20;99.90;;;;;;5113023;28;20198;-67
2021/06/28 14:40:47;;;;;;;187.55;178.90;;;28.30;99.90;;;;;;5114196;28;20227;-67
2021/06/28 14:43:14;;;;;;;299.35;284.95;;;28.30;99.90;;;;;;5113201;28;20257;-66
2021/06/28 14:45:40;;;;;;;337.73;320.95;;;28.50;99.90;;;;;;5114345;28;20499;-67
2021/06/28 14:48:10;;;;;;;181.15;172.75;;;28.60;99.90;;;;;;5113949;28;20228;-66
2021/06/28 14:50:38;;;;;;;100.25;95.78;;;28.70;99.90;;;;;;5114132;28;20616;-67
2021/06/28 14:53:05;;;;;;;77.50;74.13;;;28.70;99.90;;;;;;5114174;28;20531;-66
2021/06/28 14:55:30;;;;;;;30.70;29.63;;;28.80;99.90;;;;;;5113976;28;20219;-67
2021/06/28 14:57:56;;;;;;;206.70;197.15;;;28.70;99.90;;;;;;5113941;28;20674;-67
2021/06/28 15:00:23;;;;;;;63.80;61.05;;;28.80;99.90;;;;;;5114033;28;20198;-67
2021/06/28 15:02:49;;;;;;;41.38;38.78;;;28.70;99.90;;;;;;5114002;28;20242;-67
2021/06/28 15:05:15;;;;;;;60.85;58.28;;;28.50;99.90;;;;;;5114058;28;20430;-67
2021/06/28 15:07:42;;;;;;;57.47;55.08;;;28.20;99.90;;;;;;5114128;28;20174;-66
2021/06/28 15:10:08;;;;;;;145.18;138.57;;;27.70;99.90;;;;;;5116393;28;20170;-67
2021/06/28 15:12:34;;;;;;;49.35;47.30;;;27.50;99.90;;;;;;5118154;28;20159;-67
2021/06/28 15:14:59;;;;;;;189.02;180.25;;;27.20;99.90;;;;;;5116932;28;20173;-67
2021/06/28 15:17:25;;;;;;;75.30;71.97;;;27.20;99.90;;;;;;5118056;28;20201;-66
2021/06/28 15:19:51;;;;;;;215.55;205.55;;;27.20;99.90;;;;;;5117991;27;20166;-67
2021/06/28 15:22:17;;;;;;;145.70;139.00;;;27.20;99.90;;;;;;5117925;28;20194;-66
2021/06/28 15:24:43;;;;;;;280.17;266.25;;;27.40;99.90;;;;;;5118011;28;20642;-66
2021/06/28 15:27:10;;;;;;;140.43;133.98;;;27.60;99.90;;;;;;5117946;28;20163;-66
2021/06/28 15:29:37;;;;;;;254.07;242.13;;;27.80;99.90;;;;;;5117813;28;20162;-67
2021/06/28 15:32:04;;;;;;;44.40;42.50;;;28.00;99.90;;;;;;5117670;28;20175;-67
2021/06/28 15:34:30;;;;;;;201.32;192.00;;;28.10;99.90;;;;;;5117553;28;20181;-66
2021/06/28 15:36:56;;;;;;;55.05;52.75;;;28.20;99.90;;;;;;5117517;28;20159;-66
2021/06/28 15:39:21;;;;;;;26.38;25.33;;;28.40;99.90;;;;;;5116364;28;20666;-66
2021/06/28 15:41:47;;;;;;;41.40;39.80;;;28.10;99.90;;;;;;5117500;28;20162;-67
2021/06/28 15:44:13;;;;;;;33.85;32.45;;;28.00;99.90;;;;;;5117506;28;20158;-66
2021/06/28 15:46:38;;;;;;;77.22;73.82;;;27.80;99.90;;;;;;5117424;28;20173;-67
2021/06/28 15:49:04;;;;;;;137.43;131.10;;;27.80;99.90;;;;;;5117299;28;20347;-66
2021/06/28 15:51:30;;;;;;;69.63;66.55;;;27.50;99.90;;;;;;5116354;28;20182;-66
2021/06/28 15:53:55;;;;;;;197.68;188.55;;;27.20;99.90;;;;;;5117458;28;20567;-66
2021/06/28 15:56:21;;;;;;;147.23;140.45;;;27.20;99.90;;;;;;5117205;28;20174;-66
2021/06/28 15:58:47;;;;;;;198.80;189.55;;;27.10;99.90;;;;;;5117183;28;20198;-66
2021/06/28 16:01:13;;;;;;;342.08;325.55;;;27.10;99.90;;;;;;5117204;28;20637;-66
2021/06/28 16:03:39;;;;;;;175.00;166.95;;;27.20;99.90;;;;;;5117061;28;20166;-66
2021/06/28 16:06:04;;;;;;;265.35;252.80;;;27.40;99.90;;;;;;5117120;28;20174;-66
2021/06/28 16:08:30;;;;;;;441.17;418.02;;;27.40;99.90;;;;;;5117025;28;20198;-66
2021/06/28 16:10:57;;;;;;;179.00;170.65;;;27.50;99.90;;;;;;5116988;28;20166;-66
2021/06/28 16:13:22;;;;;;;231.10;220.32;;;27.50;99.90;;;;;;5116797;28;20198;-66
2021/06/28 16:15:48;;;;;;;328.95;313.05;;;27.60;99.90;;;;;;5116775;28;20170;-66
2021/06/28 16:18:14;;;;;;;220.55;210.32;;;27.60;99.90;;;;;;5116753;28;20198;-66
2021/06/28 16:20:40;;;;;;;229.05;218.30;;;27.60;99.90;;;;;;5116369;28;20199;-66
2021/06/28 16:23:05;;;;;;;242.43;231.02;;;27.60;99.90;;;;;;5115609;28;20170;-66
2021/06/28 16:25:31;;;;;;;123.18;117.50;;;27.50;99.90;;;;;;5116701;28;20167;-66
2021/06/28 16:27:57;;;;;;;279.73;263.85;;;27.10;99.90;;;;;;5115442;28;20261;-66
2021/06/28 16:30:22;;;;;;;447.08;423.27;;;27.00;99.90;;;;;;5116558;28;20211;-66
2021/06/28 16:32:48;;;;;;;289.05;274.92;;;26.90;99.90;;;;;;5116273;28;20639;-66
2021/06/28 16:35:16;;;;;;;284.92;271.27;;;26.90;99.90;;;;;;5116499;28;20194;-66
2021/06/28 16:37:44;;;;;;;304.80;290.05;;;26.80;99.90;;;;;;5116283;28;20235;-66
2021/06/28 16:40:11;;;;;;;414.13;392.80;;;26.90;99.90;;;;;;5116205;28;20170;-66
2021/06/28 16:42:37;;;;;;;379.00;360.13;;;27.20;99.90;;;;;;5116215;28;20166;-66
2021/06/28 16:45:06;;;;;;;178.00;169.82;;;27.20;99.90;;;;;;5116113;28;20162;-66
2021/06/28 16:47:32;;;;;;;373.30;354.73;;;27.20;99.90;;;;;;5115959;27;20214;-66
2021/06/28 16:49:57;;;;;;;516.33;487.30;;;27.00;99.90;;;;;;5115871;28;20185;-65
2021/06/28 16:52:23;;;;;;;540.42;509.35;;;27.00;99.90;;;;;;5116058;28;20615;-65
2021/06/28 16:54:49;;;;;;;417.90;396.00;;;27.20;99.90;;;;;;5116089;28;20174;-65
2021/06/28 16:57:16;;;;;;;426.50;404.35;;;27.50;99.90;;;;;;5115900;28;20261;-65
2021/06/28 16:59:43;;;;;;;327.52;311.35;;;27.80;99.90;;;;;;5115885;28;20163;-65
2021/06/28 17:02:08;;;;;;;134.57;128.40;;;27.90;99.90;;;;;;5115768;28;20170;-65
2021/06/28 17:04:35;;;;;;;99.55;95.13;;;28.00;99.90;;;;;;5115675;28;20528;-66
2021/06/28 17:07:01;;;;;;;138.02;131.68;;;28.10;99.90;;;;;;5115383;28;20162;-66
2021/06/28 17:09:27;;;;;;;52.58;50.40;;;28.10;99.90;;;;;;5115428;28;20253;-66
2021/06/28 17:11:53;;;;;;;82.65;79.03;;;28.10;99.90;;;;;;5115085;28;20162;-66
2021/06/28 17:14:19;;;;;;;174.27;166.35;;;28.10;99.90;;;;;;5112879;28;20536;-66
2021/06/28 17:16:45;;;;;;;17.38;16.98;;;28.10;99.90;;;;;;5115362;28;20268;-66
2021/06/28 17:19:10;;;;;;;19.35;18.85;;;28.00;99.90;;;;;;5115329;28;20194;-66
2021/06/28 17:21:36;;;;;;;28.75;27.75;;;27.70;99.90;;;;;;5114158;28;20170;-66
2021/06/28 17:24:03;;;;;;;69.32;66.32;;;27.50;99.90;;;;;;5115186;28;20635;-66
2021/06/28 17:26:29;;;;;;;147.32;140.57;;;27.50;99.90;;;;;;5115309;28;20170;-66
2021/06/28 17:28:54;;;;;;;57.35;54.90;;;27.70;99.90;;;;;;5115215;28;20166;-67
2021/06/28 17:31:21;;;;;;;22.15;21.45;;;27.80;99.90;;;;;;5114498;28;20277;-66
2021/06/28 17:33:47;;;;;;;32.63;31.42;;;27.80;99.90;;;;;;5114785;28;20170;-66
2021/06/28 17:36:14;;;;;;;27.90;26.95;;;27.90;99.90;;;;;;5114887;28;20227;-66
2021/06/28 17:38:40;;;;;;;21.73;21.13;;;27.90;99.90;;;;;;5115024;27;20194;-66
2021/06/28 17:41:07;;;;;;;37.97;36.53;;;27.80;99.90;;;;;;5115044;28;20495;-66
2021/06/28 17:43:33;;;;;;;115.55;110.32;;;27.80;99.90;;;;;;5114945;28;20175;-66
2021/06/28 17:46:01;;;;;;;29.17;28.17;;;27.80;99.90;;;;;;5114842;28;20158;-66
2021/06/28 17:48:28;;;;;;;89.70;85.75;;;27.90;99.90;;;;;;5114756;28;20236;-66
2021/06/28 17:50:54;;;;;;;106.47;101.72;;;28.00;99.90;;;;;;5114665;28;20166;-65
2021/06/28 17:53:20;;;;;;;18.00;17.30;;;28.00;99.90;;;;;;5114615;28;20166;-66
2021/06/28 17:55:45;;;;;;;45.85;44.00;;;28.00;99.90;;;;;;5114637;28;20607;-66
2021/06/28 17:58:11;;;;;;;44.03;42.25;;;27.80;99.90;;;;;;5114456;28;20678;-66
2021/06/28 18:00:36;;;;;;;49.67;47.63;;;27.80;99.90;;;;;;5114646;28;20167;-66
2021/06/28 18:03:02;;;;;;;49.95;47.92;;;27.80;99.90;;;;;;5113269;28;20174;-66
2021/06/28 18:05:28;;;;;;;16.35;15.95;;;27.80;99.90;;;;;;5114548;28;20158;-66
2021/06/28 18:07:53;;;;;;;85.43;81.70;;;27.70;99.90;;;;;;5114499;28;20170;-66
2021/06/28 18:10:19;;;;;;;19.63;19.13;;;27.70;99.90;;;;;;5114546;28;20219;-66
2021/06/28 18:12:44;;;;;;;28.05;27.10;;;27.50;99.90;;;;;;5114370;28;20189;-66
2021/06/28 18:15:11;;;;;;;41.15;39.33;;;27.00;99.90;;;;;;5114445;28;20162;-66
2021/06/28 18:17:36;;;;;;;80.95;77.40;;;26.70;99.90;;;;;;5114140;28;20221;-66
2021/06/28 18:20:06;;;;;;;38.75;37.30;;;26.50;99.90;;;;;;5114118;28;20197;-66
2021/06/28 18:22:32;;;;;;;95.82;91.43;;;26.50;99.90;;;;;;5114214;28;20178;-66
2021/06/28 18:24:58;;;;;;;49.58;47.58;;;26.40;99.90;;;;;;5114177;28;20163;-66
2021/06/28 18:27:24;;;;;;;89.82;85.85;;;26.30;99.90;;;;;;5113977;28;20246;-66
2021/06/28 18:29:49;;;;;;;104.00;98.88;;;26.10;99.90;;;;;;5114018;28;20684;-66
2021/06/28 18:32:15;;;;;;;78.05;74.40;;;25.80;99.90;;;;;;5114246;28;20188;-65
2021/06/28 18:34:41;;;;;;;132.98;126.95;;;25.50;99.90;;;;;;5114135;28;20166;-65
2021/06/28 18:37:07;;;;;;;137.43;131.15;;;25.30;99.90;;;;;;5112744;28;20217;-66
2021/06/28 18:39:33;;;;;;;250.52;239.05;;;25.10;99.90;;;;;;5113887;28;20209;-66
2021/06/28 18:41:59;;;;;;;337.52;321.50;;;24.90;99.90;;;;;;5113734;28;20217;-66
2021/06/28 18:44:26;;;;;;;371.63;353.73;;;24.70;99.90;;;;;;5112680;28;20177;-66
2021/06/28 18:46:52;;;;;;;386.55;367.88;;;24.50;99.90;;;;;;5112681;28;20538;-66
2021/06/28 18:49:18;;;;;;;451.58;428.83;;;24.40;99.90;;;;;;5114235;28;20170;-66
2021/06/28 18:51:45;;;;;;;570.83;539.05;;;24.30;99.90;;;;;;5113858;28;20719;-66
2021/06/28 18:54:12;;;;;;;639.53;601.97;;;24.20;99.90;;;;;;5113945;28;20178;-66
2021/06/28 18:56:39;;;;;;;660.53;620.50;;;24.20;99.90;;;;;;5113867;28;20178;-66
2021/06/28 18:59:13;;;;;;;653.95;614.72;;;24.20;99.90;;;;;;5112442;28;20198;-66
2021/06/28 19:01:42;;;;;;;772.42;724.25;;;24.40;99.90;;;;;;5113770;28;20215;-66